Main page
METAR-TAF:

METAR-TAF

Airports :

Gibraltar International Airport

Gibraltar, Gibraltar

latitude: 36-09N, longitude: 005-21W, elevation: 5 m

Current weather observation

The report was made 51 minutes ago, at 04:50 UTC
Wind 14 kt from the East
Temperature 23°C
Humidity 83%
Pressure 1016 hPa
Visibility 10 km or more
Few clouds at a height of 1200 ft

METAR: LXGB 240450Z 10014KT 9999 FEW012 23/20 Q1016 RMK BLU

Time: 07:41 (05:41 UTC)

Forecast

The report was made 1 hour and 0 minutes ago, at 04:41 UTC
Forecast valid from 24 at 06 UTC to 24 at 15 UTC
Wind 14 kt from the East
Visibility 10 km or more
Few clouds at a height of 1200 ft
Probability 30% :
Temporary
from 24 at 06 UTC to 24 at 12 UTC
Scattered clouds at a height of 1200 ft
Temporary
from 24 at 08 UTC to 24 at 15 UTC
Wind 16 kt from the East with gusts up to 26 kt

TAF: LXGB 240441Z 2406/2415 09014KT 9999 FEW012 PROB30 TEMPO 2406/2412 SCT012 TEMPO 2408/2415 09016G26KT

Weather observations and forecasts of more than 4000 airports (METAR and TAF reports).

The available stations are represented by yellow and red dots on the map.

Hover mouse over dot to see the name of the station.

Then click to see weather observations and forecasts.

To change the map : click on the green buttons with a black cross to zoom in, on the green button with a dash to zoom out, or on the green arrows for adjacent maps.


METAR-TAF: